Time;durP1;ratioP1;P1;durP2;ratioP2;P2;SDS_P1;SDS_P2;PMS_P1;PMS_P2;Temp;Humidity;BMP_temperature;BMP_pressure;BME280_temperature;BME280_humidity;BME280_pressure;Samples;Min_cycle;Max_cycle;Signal;HPM_P1;HPM_P2
2023/03/16 00:02:15;;;;;;;4.40;2.40;;;0.80;99.90;;;;;;5168622;28;20444;-48
2023/03/16 00:04:46;;;;;;;7.63;2.33;;;0.70;99.90;;;;;;5164028;28;20255;-47
2023/03/16 00:07:17;;;;;;;2.40;1.50;;;0.70;99.90;;;;;;5154561;28;20553;-48
2023/03/16 00:09:47;;;;;;;1.80;1.70;;;0.70;99.90;;;;;;5159967;28;20440;-46
2023/03/16 00:12:19;;;;;;;5.67;1.80;;;0.70;99.90;;;;;;5166053;28;20589;-47
2023/03/16 00:14:49;;;;;;;4.90;2.10;;;0.60;99.90;;;;;;5156336;28;20457;-47
2023/03/16 00:17:20;;;;;;;3.30;1.43;;;0.70;99.90;;;;;;5164779;28;20436;-47
2023/03/16 00:19:53;;;;;;;2.43;1.50;;;0.70;99.90;;;;;;5164048;28;20606;-48
2023/03/16 00:22:27;;;;;;;2.20;2.00;;;0.70;99.90;;;;;;5165862;28;20435;-46
2023/03/16 00:24:57;;;;;;;4.20;1.67;;;0.70;99.90;;;;;;5163069;28;20901;-47
2023/03/16 00:27:28;;;;;;;2.47;1.80;;;0.70;99.90;;;;;;5158867;28;20440;-48
2023/03/16 00:30:02;;;;;;;9.00;2.70;;;0.60;99.90;;;;;;5160008;28;20643;-46
2023/03/16 00:32:34;;;;;;;3.40;1.80;;;0.60;99.90;;;;;;5163051;28;20519;-47
2023/03/16 00:35:05;;;;;;;25.10;3.10;;;0.60;99.90;;;;;;5150672;28;21001;-47
2023/03/16 00:37:38;;;;;;;7.43;2.30;;;0.60;99.90;;;;;;5169886;28;20431;-47
2023/03/16 00:40:11;;;;;;;4.93;2.40;;;0.60;99.90;;;;;;5156875;28;20440;-47
2023/03/16 00:42:41;;;;;;;8.67;2.03;;;0.60;99.90;;;;;;5163622;28;20530;-47
2023/03/16 00:45:12;;;;;;;3.13;1.80;;;0.60;99.90;;;;;;5162937;28;20519;-47
2023/03/16 00:47:42;;;;;;;3.60;2.30;;;0.60;99.90;;;;;;5164271;28;20186;-46
2023/03/16 00:50:13;;;;;;;3.33;1.80;;;0.60;99.90;;;;;;5157014;28;20754;-46
2023/03/16 00:52:44;;;;;;;4.10;1.80;;;0.60;99.90;;;;;;5157902;28;20457;-47
2023/03/16 00:55:15;;;;;;;7.73;1.97;;;0.60;99.90;;;;;;5157484;28;20214;-46
2023/03/16 00:57:46;;;;;;;4.73;1.80;;;0.60;99.90;;;;;;5164972;28;20794;-46
2023/03/16 01:00:19;;;;;;;1.90;1.27;;;0.50;99.90;;;;;;5162634;28;20239;-46
2023/03/16 01:02:50;;;;;;;3.30;1.30;;;0.50;99.90;;;;;;5163164;28;20192;-48
2023/03/16 01:05:21;;;;;;;6.47;1.93;;;0.50;99.90;;;;;;5167200;28;21023;-46
2023/03/16 01:07:52;;;;;;;2.07;1.73;;;0.50;99.90;;;;;;5163139;28;20216;-46
2023/03/16 01:10:23;;;;;;;5.37;2.63;;;0.60;99.90;;;;;;5166743;28;20516;-46
2023/03/16 01:12:55;;;;;;;5.80;2.00;;;0.60;99.90;;;;;;5156299;28;20297;-47
2023/03/16 01:15:25;;;;;;;3.13;1.47;;;0.50;99.90;;;;;;5154911;28;20465;-47
2023/03/16 01:17:56;;;;;;;2.73;1.37;;;0.50;99.90;;;;;;5160430;28;20542;-45
2023/03/16 01:20:27;;;;;;;5.77;1.93;;;0.50;99.90;;;;;;5157883;28;20185;-47
2023/03/16 01:22:57;;;;;;;4.57;1.90;;;0.50;99.90;;;;;;5176083;28;20192;-48
2023/03/16 01:25:28;;;;;;;3.07;1.67;;;0.50;99.90;;;;;;5164047;28;20303;-46
2023/03/16 01:28:00;;;;;;;6.20;2.30;;;0.40;99.90;;;;;;5162420;28;20194;-46
2023/03/16 01:30:31;;;;;;;1.63;1.53;;;0.40;99.90;;;;;;5154115;28;20195;-46
2023/03/16 01:33:02;;;;;;;5.97;2.90;;;0.40;99.90;;;;;;5167033;28;20472;-47
2023/03/16 01:35:33;;;;;;;7.73;2.57;;;0.40;99.90;;;;;;5160107;28;20548;-46
2023/03/16 01:38:03;;;;;;;2.83;1.70;;;0.40;99.90;;;;;;5160558;28;20432;-46
2023/03/16 01:40:35;;;;;;;2.53;1.00;;;0.40;99.90;;;;;;5158409;28;20189;-47
2023/03/16 01:43:06;;;;;;;5.13;1.40;;;0.40;99.90;;;;;;5163441;28;20189;-46
2023/03/16 01:46:05;;;;;;;5.77;1.60;;;0.40;99.90;;;;;;5156464;28;20554;-46
2023/03/16 01:48:44;;;;;;;6.47;1.97;;;0.40;99.90;;;;;;5168950;28;20193;-50
2023/03/16 01:51:39;;;;;;;4.87;2.20;;;0.40;99.90;;;;;;5163956;28;20963;-47
2023/03/16 01:54:32;;;;;;;7.83;1.90;;;0.40;99.90;;;;;;5161669;28;20655;-47
2023/03/16 01:57:06;;;;;;;2.97;2.17;;;0.40;99.90;;;;;;5166856;28;20958;-47
2023/03/16 02:00:06;;;;;;;4.53;2.03;;;0.40;99.90;;;;;;5161209;28;20442;-49
2023/03/16 02:02:42;;;;;;;3.50;1.70;;;0.30;99.90;;;;;;5170002;28;20435;-50
2023/03/16 02:05:15;;;;;;;6.37;2.13;;;0.30;99.90;;;;;;5158608;28;20467;-46
2023/03/16 02:07:48;;;;;;;10.23;2.17;;;0.30;99.90;;;;;;5169463;28;20443;-46
2023/03/16 02:10:19;;;;;;;18.23;2.20;;;0.30;99.90;;;;;;5163518;28;20471;-46
2023/03/16 02:12:51;;;;;;;6.23;2.33;;;0.30;99.90;;;;;;5165505;28;20547;-46
2023/03/16 02:15:21;;;;;;;8.30;2.37;;;0.30;99.90;;;;;;5167716;28;20455;-46
2023/03/16 02:17:52;;;;;;;2.67;1.63;;;0.30;99.90;;;;;;5165185;28;20489;-46
2023/03/16 02:20:41;;;;;;;5.90;1.87;;;0.20;99.90;;;;;;5174888;28;20287;-46
2023/03/16 02:23:17;;;;;;;1.67;1.57;;;0.20;99.90;;;;;;5164228;28;20416;-46
2023/03/16 02:26:00;;;;;;;6.77;2.30;;;0.20;99.90;;;;;;5174505;28;20478;-46
2023/03/16 02:29:24;;;;;;;1.80;1.70;;;0.20;99.90;;;;;;5156416;28;20443;-46
2023/03/16 02:31:57;;;;;;;4.63;2.10;;;0.20;99.90;;;;;;5133723;28;20889;-46
2023/03/16 02:34:28;;;;;;;4.80;2.13;;;0.20;99.90;;;;;;5146106;28;20971;-46
2023/03/16 02:36:59;;;;;;;6.57;2.57;;;0.20;99.90;;;;;;5151301;28;20444;-47
2023/03/16 02:39:30;;;;;;;2.17;1.90;;;0.20;99.90;;;;;;5164095;28;20535;-45
2023/03/16 02:42:01;;;;;;;1.80;1.70;;;0.20;99.90;;;;;;5177897;28;20509;-47
2023/03/16 02:44:35;;;;;;;4.53;1.43;;;0.20;99.90;;;;;;5165283;28;20270;-47
2023/03/16 02:47:12;;;;;;;5.20;2.00;;;0.20;99.90;;;;;;5165285;28;20556;-46
2023/03/16 02:49:44;;;;;;;4.20;2.33;;;0.10;99.90;;;;;;5162581;28;20501;-47
2023/03/16 02:52:15;;;;;;;6.37;1.73;;;0.10;99.90;;;;;;5166907;28;20467;-48
2023/03/16 02:54:45;;;;;;;2.40;1.60;;;0.10;99.90;;;;;;5167622;28;20471;-50
2023/03/16 02:57:16;;;;;;;7.07;1.57;;;0.00;99.90;;;;;;5171468;28;20192;-46
2023/03/16 02:59:47;;;;;;;3.67;1.70;;;0.00;99.90;;;;;;5180419;28;20540;-48
2023/03/16 03:02:18;;;;;;;2.83;1.70;;;-0.10;99.90;;;;;;5171380;28;20197;-46
2023/03/16 03:04:53;;;;;;;1.87;1.70;;;-0.10;99.90;;;;;;5167718;28;20205;-46
2023/03/16 03:07:30;;;;;;;3.77;2.03;;;-0.20;99.90;;;;;;5173768;28;20478;-46
2023/03/16 03:10:01;;;;;;;3.17;1.40;;;-0.20;99.90;;;;;;5160742;28;20474;-45
2023/03/16 03:12:33;;;;;;;4.10;2.63;;;-0.30;99.90;;;;;;5167289;28;20548;-46
2023/03/16 03:15:04;;;;;;;6.27;2.40;;;-0.40;99.90;;;;;;5160591;28;20511;-52
2023/03/16 03:17:36;;;;;;;6.67;2.00;;;-0.40;99.90;;;;;;5167292;28;20523;-46
2023/03/16 03:20:18;;;;;;;2.43;1.80;;;-0.40;99.90;;;;;;5157639;28;20442;-47
2023/03/16 03:22:51;;;;;;;9.20;4.90;;;-0.50;99.90;;;;;;5169709;28;20476;-45
2023/03/16 03:25:22;;;;;;;3.67;2.03;;;-0.40;99.90;;;;;;5175394;28;20463;-46
2023/03/16 03:27:53;;;;;;;3.33;2.10;;;-0.50;99.90;;;;;;5170774;28;20440;-46
2023/03/16 03:30:24;;;;;;;3.00;1.43;;;-0.50;99.90;;;;;;5165182;28;20567;-47
2023/03/16 03:32:54;;;;;;;6.20;2.37;;;-0.50;99.90;;;;;;5169515;28;20475;-46
2023/03/16 03:35:25;;;;;;;2.97;1.70;;;-0.50;99.90;;;;;;5167618;28;20207;-45
2023/03/16 03:37:56;;;;;;;7.37;2.53;;;-0.40;99.90;;;;;;5162857;28;20717;-46
2023/03/16 03:40:26;;;;;;;6.23;1.50;;;-0.40;99.90;;;;;;5163002;28;20188;-49
2023/03/16 03:42:57;;;;;;;7.03;1.50;;;-0.30;99.90;;;;;;5170948;28;20178;-49
2023/03/16 03:45:28;;;;;;;3.20;1.67;;;-0.30;99.90;;;;;;5176478;23;20280;-53
2023/03/16 03:47:58;;;;;;;3.50;1.77;;;-0.30;99.90;;;;;;5190285;28;20177;-53
2023/03/16 03:50:29;;;;;;;2.63;1.20;;;-0.30;99.90;;;;;;5179314;28;20176;-54
2023/03/16 03:52:59;;;;;;;4.83;1.90;;;-0.30;99.90;;;;;;5190820;28;20223;-54
2023/03/16 03:55:30;;;;;;;1.77;1.60;;;-0.30;99.90;;;;;;5168787;28;20260;-53
2023/03/16 03:58:01;;;;;;;1.60;1.60;;;-0.30;99.90;;;;;;5169345;28;20209;-54
2023/03/16 04:00:31;;;;;;;3.90;2.10;;;-0.20;99.90;;;;;;5162398;28;20545;-53
2023/03/16 04:03:02;;;;;;;1.83;1.37;;;-0.20;99.90;;;;;;5166449;28;20732;-53
2023/03/16 04:05:33;;;;;;;2.10;1.73;;;-0.20;99.90;;;;;;5166237;28;20545;-52
2023/03/16 04:08:04;;;;;;;1.47;0.90;;;-0.30;99.90;;;;;;5187093;28;20447;-55
2023/03/16 04:10:35;;;;;;;2.83;1.90;;;-0.30;99.90;;;;;;5166664;28;20663;-52
2023/03/16 04:13:06;;;;;;;7.30;1.23;;;-0.30;99.90;;;;;;5175955;28;20461;-53
2023/03/16 04:15:37;;;;;;;3.23;1.83;;;-0.30;99.90;;;;;;5152594;28;20195;-53
2023/03/16 04:18:08;;;;;;;1.57;1.30;;;-0.30;99.90;;;;;;5158355;28;20193;-53
2023/03/16 04:20:38;;;;;;;4.60;2.33;;;-0.20;99.90;;;;;;5167473;28;20444;-52
2023/03/16 04:23:09;;;;;;;4.93;1.70;;;-0.20;99.90;;;;;;5170613;28;20563;-53
2023/03/16 04:25:40;;;;;;;1.43;1.30;;;-0.20;99.90;;;;;;5164204;28;20216;-53
2023/03/16 04:28:10;;;;;;;2.40;1.80;;;-0.20;99.90;;;;;;5163833;28;20244;-54
2023/03/16 04:30:41;;;;;;;6.63;1.60;;;-0.20;99.90;;;;;;5178414;28;20186;-53
2023/03/16 04:33:13;;;;;;;1.80;1.57;;;-0.30;99.90;;;;;;5172580;28;20221;-55
2023/03/16 04:35:44;;;;;;;13.23;2.00;;;-0.30;99.90;;;;;;5163256;28;20452;-54
2023/03/16 04:38:15;;;;;;;1.63;1.23;;;-0.20;99.90;;;;;;5169498;28;20433;-54
2023/03/16 04:40:46;;;;;;;3.50;1.73;;;-0.30;99.90;;;;;;5173289;28;20498;-53
2023/03/16 04:43:16;;;;;;;13.00;2.10;;;-0.30;99.90;;;;;;5171826;28;20267;-53
2023/03/16 04:45:47;;;;;;;8.23;2.20;;;-0.30;99.90;;;;;;5167182;28;20306;-56
2023/03/16 04:48:18;;;;;;;8.03;2.10;;;-0.30;99.90;;;;;;5179427;28;20239;-54
2023/03/16 04:50:49;;;;;;;2.70;1.70;;;-0.40;99.90;;;;;;5164226;28;20228;-54
2023/03/16 04:53:20;;;;;;;2.30;1.63;;;-0.30;99.90;;;;;;5164520;28;20297;-54
2023/03/16 04:55:51;;;;;;;5.43;2.13;;;-0.30;99.90;;;;;;5169025;28;20524;-54
2023/03/16 04:58:22;;;;;;;3.17;1.33;;;-0.30;99.90;;;;;;5165293;28;20449;-55
2023/03/16 05:00:54;;;;;;;1.67;1.57;;;-0.40;99.90;;;;;;5160790;28;20606;-54
2023/03/16 05:03:24;;;;;;;2.97;1.77;;;-0.40;99.90;;;;;;5167603;28;20178;-53
2023/03/16 05:05:55;;;;;;;1.67;1.57;;;-0.40;99.90;;;;;;5167112;28;20548;-55
2023/03/16 05:08:26;;;;;;;1.80;1.57;;;-0.50;99.90;;;;;;5165626;28;20187;-54
2023/03/16 05:10:57;;;;;;;2.80;1.70;;;-0.50;99.90;;;;;;5170967;28;20189;-53
2023/03/16 05:13:28;;;;;;;5.17;1.73;;;-0.50;99.90;;;;;;5171408;28;20688;-52
2023/03/16 05:15:59;;;;;;;8.83;3.40;;;-0.50;99.90;;;;;;5156319;28;20544;-52
2023/03/16 05:18:32;;;;;;;3.23;1.93;;;-0.40;99.90;;;;;;5166031;28;20251;-53
2023/03/16 05:21:02;;;;;;;2.53;1.90;;;-0.40;99.90;;;;;;5166388;28;20472;-51
2023/03/16 05:23:33;;;;;;;1.93;1.43;;;-0.40;99.90;;;;;;5161142;28;20473;-55
2023/03/16 05:26:04;;;;;;;6.43;2.40;;;-0.40;99.90;;;;;;5164931;28;20206;-55
2023/03/16 05:28:34;;;;;;;4.60;1.83;;;-0.40;99.90;;;;;;5165663;28;20661;-54
2023/03/16 05:31:05;;;;;;;1.77;1.67;;;-0.30;99.90;;;;;;5159339;28;20397;-55
2023/03/16 05:33:36;;;;;;;5.33;2.40;;;-0.40;99.90;;;;;;5176015;28;20770;-53
2023/03/16 05:36:07;;;;;;;4.73;2.50;;;-0.30;99.90;;;;;;5167800;28;20298;-54
2023/03/16 05:38:38;;;;;;;7.30;2.80;;;-0.30;99.90;;;;;;5165939;28;20915;-54
2023/03/16 05:41:09;;;;;;;2.93;2.20;;;-0.20;99.90;;;;;;5177732;28;20216;-54
2023/03/16 05:43:39;;;;;;;4.07;2.40;;;-0.20;99.90;;;;;;5162023;28;20192;-53
2023/03/16 05:46:10;;;;;;;3.23;2.83;;;-0.20;99.90;;;;;;5170067;28;20489;-54
2023/03/16 05:48:41;;;;;;;3.10;2.10;;;-0.10;99.90;;;;;;5163888;28;20190;-55
2023/03/16 05:51:13;;;;;;;6.43;2.97;;;-0.10;99.90;;;;;;5163007;28;20542;-55
2023/03/16 05:53:45;;;;;;;7.20;2.30;;;0.10;99.90;;;;;;5160943;28;20216;-52
2023/03/16 05:56:16;;;;;;;7.50;3.07;;;0.60;99.90;;;;;;5164502;28;20535;-55
2023/03/16 05:58:46;;;;;;;3.87;2.10;;;1.40;99.90;;;;;;5163161;28;20444;-55
2023/03/16 06:01:19;;;;;;;3.27;2.13;;;1.90;99.90;;;;;;5164536;28;20191;-55
2023/03/16 06:03:53;;;;;;;4.73;2.53;;;2.20;99.90;;;;;;5170905;28;20177;-56
2023/03/16 06:06:23;;;;;;;3.33;1.63;;;2.50;99.90;;;;;;5164220;28;20550;-55
2023/03/16 06:08:54;;;;;;;2.70;2.07;;;2.60;99.90;;;;;;5166724;28;21336;-54
2023/03/16 06:11:24;;;;;;;3.43;2.00;;;2.80;99.90;;;;;;5164214;28;20192;-53
2023/03/16 06:13:56;;;;;;;4.30;1.63;;;2.90;99.90;;;;;;5161445;28;20200;-54
2023/03/16 06:16:27;;;;;;;8.00;2.17;;;2.90;99.90;;;;;;5157517;28;20224;-53
2023/03/16 06:18:58;;;;;;;11.70;2.50;;;2.80;99.90;;;;;;5163706;28;20432;-57
2023/03/16 06:21:28;;;;;;;3.40;2.40;;;2.80;99.90;;;;;;5155126;28;20189;-52
2023/03/16 06:23:59;;;;;;;10.73;2.53;;;3.60;99.90;;;;;;5165534;28;20553;-55
2023/03/16 06:26:29;;;;;;;4.90;2.00;;;4.70;99.90;;;;;;5164152;28;20681;-56
2023/03/16 06:29:00;;;;;;;4.53;2.13;;;6.50;99.90;;;;;;5159301;28;20557;-55
2023/03/16 06:31:32;;;;;;;10.60;2.60;;;8.90;98.10;;;;;;5174910;28;20184;-54
2023/03/16 06:34:03;;;;;;;6.57;2.00;;;11.30;71.70;;;;;;5161481;28;20212;-55
2023/03/16 06:36:34;;;;;;;8.83;2.43;;;13.20;55.80;;;;;;5162507;28;20490;-55
2023/03/16 06:39:05;;;;;;;5.87;2.50;;;14.70;49.70;;;;;;5168413;28;20181;-56
2023/03/16 06:41:36;;;;;;;2.77;1.97;;;15.80;45.20;;;;;;5159386;28;20502;-55
2023/03/16 06:44:08;;;;;;;3.37;1.87;;;16.70;42.30;;;;;;5150554;28;20669;-57
2023/03/16 06:46:38;;;;;;;7.40;3.17;;;17.70;40.00;;;;;;5161304;28;20539;-55
2023/03/16 06:49:09;;;;;;;5.87;2.60;;;18.50;37.70;;;;;;5159176;28;20516;-55
2023/03/16 06:51:40;;;;;;;4.80;2.63;;;18.80;35.70;;;;;;5177284;28;20235;-54
2023/03/16 06:54:11;;;;;;;4.90;2.43;;;19.20;34.50;;;;;;5163922;28;21006;-57
2023/03/16 06:56:41;;;;;;;2.03;1.83;;;19.40;33.80;;;;;;5163522;28;20177;-56
2023/03/16 06:59:12;;;;;;;5.13;2.30;;;19.70;33.10;;;;;;5162697;28;20537;-54
2023/03/16 07:01:43;;;;;;;2.00;1.80;;;19.80;32.60;;;;;;5165341;28;20173;-56
2023/03/16 07:04:14;;;;;;;5.63;2.10;;;20.30;31.60;;;;;;5165253;28;20185;-54
2023/03/16 07:06:45;;;;;;;5.00;2.30;;;20.40;30.70;;;;;;5164675;28;20943;-55
2023/03/16 07:09:16;;;;;;;8.97;2.43;;;20.30;30.30;;;;;;5161044;28;20448;-57
2023/03/16 07:11:46;;;;;;;3.57;2.60;;;20.50;30.50;;;;;;5166843;28;20624;-55
2023/03/16 07:14:18;;;;;;;4.20;2.00;;;20.70;29.30;;;;;;5165664;28;20580;-56
2023/03/16 07:16:49;;;;;;;5.53;2.20;;;21.00;29.40;;;;;;5164808;28;20231;-54
2023/03/16 07:19:21;;;;;;;5.67;2.87;;;21.30;29.20;;;;;;5181588;28;20436;-55
2023/03/16 07:21:52;;;;;;;4.60;2.33;;;21.50;28.60;;;;;;5162351;28;20188;-55
2023/03/16 07:24:22;;;;;;;7.60;2.60;;;21.60;28.40;;;;;;5163902;28;20440;-55
2023/03/16 07:26:53;;;;;;;9.07;2.77;;;21.70;28.20;;;;;;5178722;28;20243;-56
2023/03/16 07:29:23;;;;;;;3.80;2.00;;;21.80;27.80;;;;;;5165786;28;20181;-55
2023/03/16 07:31:54;;;;;;;2.53;1.87;;;21.90;27.60;;;;;;5165718;28;20268;-56
2023/03/16 07:34:25;;;;;;;5.50;1.77;;;21.60;27.50;;;;;;5167091;28;20213;-56
2023/03/16 07:36:55;;;;;;;5.43;2.30;;;21.80;27.70;;;;;;5179515;28;20200;-54
2023/03/16 07:39:27;;;;;;;1.50;1.40;;;21.90;27.30;;;;;;5147300;28;20279;-56
2023/03/16 07:41:58;;;;;;;1.63;1.43;;;21.90;26.40;;;;;;5142459;28;20258;-55
2023/03/16 07:44:30;;;;;;;4.03;1.07;;;21.70;26.60;;;;;;5151928;28;20476;-56
2023/03/16 07:47:00;;;;;;;6.87;1.80;;;21.80;27.10;;;;;;5162215;28;20697;-56
2023/03/16 07:49:31;;;;;;;4.20;2.20;;;21.80;26.80;;;;;;5180228;28;20479;-56
2023/03/16 07:52:02;;;;;;;4.40;2.30;;;21.80;26.80;;;;;;5161549;28;20185;-55
2023/03/16 07:54:33;;;;;;;8.00;2.03;;;21.60;27.00;;;;;;5157644;28;20205;-56
2023/03/16 07:57:03;;;;;;;7.13;1.90;;;21.60;26.30;;;;;;5163120;28;20189;-56
2023/03/16 07:59:34;;;;;;;6.97;2.20;;;21.50;26.50;;;;;;5164245;28;20260;-55
2023/03/16 08:02:04;;;;;;;5.93;1.87;;;21.00;26.60;;;;;;5174628;28;20877;-56
2023/03/16 08:04:35;;;;;;;5.60;1.90;;;19.80;27.70;;;;;;5159547;28;20208;-54
2023/03/16 08:07:06;;;;;;;3.70;2.23;;;18.60;28.50;;;;;;5175300;28;20244;-58
2023/03/16 08:09:36;;;;;;;10.83;1.70;;;17.40;29.40;;;;;;5158570;28;20657;-55
2023/03/16 08:12:08;;;;;;;11.73;2.00;;;15.80;30.90;;;;;;5160955;28;20208;-54
2023/03/16 08:14:39;;;;;;;5.60;2.30;;;14.70;33.50;;;;;;5161004;28;20209;-56
2023/03/16 08:17:11;;;;;;;4.23;2.00;;;13.90;35.00;;;;;;5161538;28;20458;-55
2023/03/16 08:19:41;;;;;;;6.43;2.40;;;13.10;36.30;;;;;;5159451;28;20558;-56
2023/03/16 08:22:12;;;;;;;4.10;1.93;;;12.40;36.90;;;;;;5157310;28;20428;-54
2023/03/16 08:24:43;;;;;;;9.43;2.17;;;11.90;38.20;;;;;;5155198;28;20283;-54
2023/03/16 08:27:14;;;;;;;1.83;1.50;;;11.20;38.60;;;;;;5159338;28;20177;-54
2023/03/16 08:29:45;;;;;;;5.50;3.17;;;10.70;40.10;;;;;;5164057;28;20662;-55
2023/03/16 08:32:17;;;;;;;4.07;1.80;;;10.50;40.90;;;;;;5157126;28;20431;-53
2023/03/16 08:34:47;;;;;;;4.60;2.50;;;10.60;41.40;;;;;;5164402;28;20662;-56
2023/03/16 08:37:18;;;;;;;2.80;1.83;;;10.80;41.70;;;;;;5156876;28;20463;-53
2023/03/16 08:39:50;;;;;;;6.23;1.43;;;10.60;41.80;;;;;;5160728;28;20249;-53
2023/03/16 08:42:21;;;;;;;8.20;2.20;;;10.10;41.70;;;;;;5162399;28;20669;-55
2023/03/16 08:44:54;;;;;;;9.60;2.00;;;9.50;43.20;;;;;;5161650;28;20475;-55
2023/03/16 08:47:25;;;;;;;4.10;1.70;;;8.80;43.50;;;;;;5163067;28;20671;-54
2023/03/16 08:49:56;;;;;;;6.63;2.23;;;8.50;44.80;;;;;;5179105;28;20796;-54
2023/03/16 08:52:27;;;;;;;2.30;1.83;;;8.20;45.90;;;;;;5162477;28;20460;-54
2023/03/16 08:54:57;;;;;;;5.07;1.70;;;7.90;46.20;;;;;;5160225;28;20479;-55
2023/03/16 08:57:28;;;;;;;2.77;2.10;;;7.80;47.10;;;;;;5178838;28;20441;-54
2023/03/16 08:59:59;;;;;;;4.03;1.80;;;7.60;47.50;;;;;;5158276;28;20247;-55
2023/03/16 09:02:30;;;;;;;6.67;2.33;;;7.60;47.30;;;;;;5156378;28;20181;-54
2023/03/16 09:05:01;;;;;;;4.07;2.23;;;7.60;47.80;;;;;;5159395;28;20560;-55
2023/03/16 09:07:34;;;;;;;10.23;4.77;;;7.60;47.90;;;;;;5174815;28;20443;-56
2023/03/16 09:10:10;;;;;;;20.67;6.13;;;7.60;47.50;;;;;;5155465;28;20192;-55
2023/03/16 09:12:42;;;;;;;24.97;11.73;;;7.60;47.30;;;;;;5158969;28;20474;-56
2023/03/16 09:15:13;;;;;;;9.10;3.87;;;7.40;47.00;;;;;;5155486;28;20460;-55
2023/03/16 09:17:44;;;;;;;4.53;2.17;;;7.50;47.70;;;;;;5163136;28;20451;-55
2023/03/16 09:20:17;;;;;;;18.03;10.83;;;7.50;47.90;;;;;;5159773;28;20177;-54
2023/03/16 09:22:48;;;;;;;9.43;4.03;;;7.50;48.00;;;;;;5160075;28;20475;-55
2023/03/16 09:25:19;;;;;;;8.57;3.00;;;7.40;46.00;;;;;;5156959;28;20979;-57
2023/03/16 09:27:50;;;;;;;10.57;3.40;;;7.40;46.00;;;;;;5159331;28;20601;-53
2023/03/16 09:30:21;;;;;;;9.63;4.13;;;7.40;46.20;;;;;;5156584;28;20436;-55
2023/03/16 09:32:52;;;;;;;7.30;2.53;;;7.50;46.50;;;;;;5157349;28;20472;-56
2023/03/16 09:35:22;;;;;;;7.47;3.40;;;7.50;46.40;;;;;;5174639;28;20448;-53
2023/03/16 09:37:53;;;;;;;1.80;1.40;;;7.60;45.60;;;;;;5162149;28;20199;-54
2023/03/16 09:40:26;;;;;;;4.50;1.37;;;7.70;45.10;;;;;;5159018;28;23313;-54
2023/03/16 09:43:06;;;;;;;1.27;1.03;;;7.80;45.20;;;;;;5169673;28;20197;-53
2023/03/16 09:45:56;;;;;;;8.93;1.50;;;7.90;45.00;;;;;;5169367;23;20515;-49
2023/03/16 09:48:29;;;;;;;2.87;1.60;;;7.90;44.30;;;;;;5154918;28;20495;-49
2023/03/16 09:51:04;;;;;;;3.03;2.43;;;7.90;44.60;;;;;;5156451;28;20444;-49
2023/03/16 09:53:38;;;;;;;8.60;2.73;;;8.00;45.30;;;;;;5157010;28;20467;-48
2023/03/16 09:56:21;;;;;;;3.20;2.50;;;8.00;44.80;;;;;;5152774;28;20486;-51
2023/03/16 09:59:10;;;;;;;8.93;5.40;;;8.10;45.20;;;;;;5158291;28;20440;-47
2023/03/16 10:02:30;;;;;;;6.17;3.30;;;8.10;44.20;;;;;;5153274;28;20456;-49
2023/03/16 10:05:12;;;;;;;19.03;4.53;;;8.10;43.70;;;;;;5153249;28;20467;-50
2023/03/16 10:07:51;;;;;;;8.03;3.87;;;8.30;42.30;;;;;;5154891;28;20576;-49
2023/03/16 10:10:50;;;;;;;6.50;1.83;;;8.20;42.20;;;;;;5157683;28;20449;-49
2023/03/16 10:13:26;;;;;;;2.03;1.60;;;8.30;42.70;;;;;;5151707;28;20623;-48
2023/03/16 10:16:02;;;;;;;2.17;1.60;;;8.30;43.50;;;;;;5158629;28;20911;-48
2023/03/16 10:18:43;;;;;;;7.23;1.20;;;8.40;43.00;;;;;;5145483;28;20502;-49
2023/03/16 10:21:17;;;;;;;6.53;2.33;;;8.50;42.70;;;;;;5159353;28;20448;-48
2023/03/16 10:23:48;;;;;;;3.30;1.47;;;8.60;41.00;;;;;;5155044;28;20448;-50
2023/03/16 10:26:28;;;;;;;1.53;1.27;;;8.40;40.00;;;;;;5158898;28;20479;-49
2023/03/16 10:28:59;;;;;;;7.50;1.90;;;8.50;39.50;;;;;;5155539;28;20940;-48
2023/03/16 10:31:33;;;;;;;1.97;0.97;;;8.50;39.50;;;;;;5160934;28;20804;-50
2023/03/16 10:34:05;;;;;;;3.90;1.47;;;8.50;39.20;;;;;;5154788;28;20464;-49
2023/03/16 10:36:40;;;;;;;1.57;1.47;;;8.50;38.90;;;;;;5160401;28;20488;-49
2023/03/16 10:39:16;;;;;;;3.80;1.90;;;8.50;39.40;;;;;;5161564;28;20934;-48
2023/03/16 10:41:57;;;;;;;3.40;2.07;;;8.60;40.20;;;;;;5160014;28;20428;-50
2023/03/16 10:44:32;;;;;;;2.70;1.93;;;8.60;40.30;;;;;;5155650;28;21445;-48
2023/03/16 10:47:05;;;;;;;3.13;1.10;;;8.80;39.30;;;;;;5159079;28;20529;-49
2023/03/16 10:49:47;;;;;;;3.53;2.27;;;8.70;39.00;;;;;;5160376;28;20451;-48
2023/03/16 10:52:26;;;;;;;1.77;1.60;;;8.80;39.30;;;;;;5160491;28;20436;-50
2023/03/16 10:55:09;;;;;;;2.47;1.03;;;8.90;39.30;;;;;;5155656;28;20481;-48
2023/03/16 10:57:46;;;;;;;2.63;0.83;;;9.00;38.70;;;;;;5161757;28;20447;-48
2023/03/16 11:00:29;;;;;;;2.60;1.97;;;9.00;38.10;;;;;;5155994;28;20439;-49
2023/03/16 11:03:01;;;;;;;3.73;2.27;;;9.10;38.30;;;;;;5159432;28;20444;-48
2023/03/16 11:05:33;;;;;;;10.73;1.60;;;9.10;38.00;;;;;;5163371;28;20460;-50
2023/03/16 11:08:10;;;;;;;4.90;1.83;;;9.30;37.10;;;;;;5160424;28;20454;-50
2023/03/16 11:10:45;;;;;;;2.07;1.57;;;9.20;37.00;;;;;;5158294;28;20484;-49
2023/03/16 11:13:18;;;;;;;3.10;1.80;;;9.10;38.00;;;;;;5158785;28;20590;-48
2023/03/16 11:16:29;;;;;;;1.83;1.37;;;9.30;38.40;;;;;;5157906;28;20538;-49
2023/03/16 11:19:08;;;;;;;4.63;1.77;;;9.30;38.50;;;;;;5142971;28;20781;-49
2023/03/16 11:21:54;;;;;;;7.50;1.87;;;9.30;38.40;;;;;;5175159;28;20450;-49
2023/03/16 11:24:43;;;;;;;1.93;1.73;;;9.40;37.60;;;;;;5154112;28;20795;-49
2023/03/16 11:27:27;;;;;;;4.30;1.87;;;9.30;36.60;;;;;;5155818;28;20824;-48
2023/03/16 11:30:19;;;;;;;3.47;2.27;;;9.40;38.30;;;;;;5158787;28;20494;-48
2023/03/16 11:32:52;;;;;;;3.33;1.30;;;9.40;37.70;;;;;;5153769;28;20468;-48
2023/03/16 11:35:40;;;;;;;2.87;1.10;;;9.40;38.30;;;;;;5156719;28;20464;-48
2023/03/16 11:38:20;;;;;;;3.23;1.30;;;9.10;38.30;;;;;;5159345;28;20926;-49
2023/03/16 11:41:02;;;;;;;1.57;1.03;;;9.00;38.30;;;;;;5161823;28;20916;-49
2023/03/16 11:43:42;;;;;;;3.87;1.20;;;9.20;37.80;;;;;;5159815;28;20449;-50
2023/03/16 11:46:16;;;;;;;4.77;1.43;;;9.30;36.60;;;;;;5153696;28;20483;-49
2023/03/16 11:49:14;;;;;;;3.60;1.70;;;9.20;36.70;;;;;;5156614;28;20433;-49
2023/03/16 11:52:16;;;;;;;2.20;1.10;;;9.20;37.10;;;;;;5159073;28;20447;-50
2023/03/16 11:54:58;;;;;;;2.00;1.40;;;9.30;37.80;;;;;;5151200;28;20669;-49
2023/03/16 11:57:47;;;;;;;10.67;2.17;;;9.40;38.40;;;;;;5154448;28;20437;-51
2023/03/16 12:00:30;;;;;;;9.03;1.57;;;9.50;38.70;;;;;;5152249;28;20765;-49
2023/03/16 12:03:11;;;;;;;2.60;1.67;;;9.50;37.20;;;;;;5153246;28;20899;-51
2023/03/16 12:06:03;;;;;;;4.10;1.70;;;9.50;37.70;;;;;;5151572;28;20458;-49
2023/03/16 12:08:49;;;;;;;5.90;1.27;;;9.60;38.60;;;;;;5154044;28;20482;-50
2023/03/16 12:11:29;;;;;;;3.80;1.40;;;9.70;38.10;;;;;;5153712;28;20897;-51
2023/03/16 12:14:25;;;;;;;6.13;1.13;;;9.70;38.60;;;;;;5150095;28;20514;-54
2023/03/16 12:17:02;;;;;;;1.70;1.47;;;9.70;37.60;;;;;;5152493;28;20542;-49
2023/03/16 12:19:37;;;;;;;8.80;1.50;;;9.90;37.20;;;;;;5157120;28;20817;-49
2023/03/16 12:22:22;;;;;;;1.90;0.90;;;9.70;35.60;;;;;;5162092;28;20439;-48
2023/03/16 12:24:53;;;;;;;1.43;0.90;;;9.50;34.90;;;;;;5153461;28;20468;-48
2023/03/16 12:27:30;;;;;;;3.80;1.47;;;9.60;35.10;;;;;;5156868;28;20433;-52
2023/03/16 12:30:05;;;;;;;4.00;1.53;;;9.60;33.10;;;;;;5159410;28;20458;-46
2023/03/16 12:32:52;;;;;;;3.20;1.20;;;9.50;32.90;;;;;;5159311;28;20978;-48
2023/03/16 12:35:55;;;;;;;1.43;0.77;;;9.40;34.20;;;;;;5152986;28;20531;-49
2023/03/16 12:38:47;;;;;;;3.60;1.20;;;9.50;31.60;;;;;;5150755;28;20467;-49
2023/03/16 12:41:27;;;;;;;3.30;1.60;;;9.60;33.40;;;;;;5150201;28;20447;-50
2023/03/16 12:44:00;;;;;;;2.10;1.67;;;9.60;34.50;;;;;;5151359;28;20450;-48
2023/03/16 12:46:41;;;;;;;4.63;1.77;;;9.60;35.70;;;;;;5154604;28;20476;-49
2023/03/16 12:49:14;;;;;;;1.80;1.10;;;9.40;36.00;;;;;;5164499;28;20858;-48
2023/03/16 12:51:47;;;;;;;5.63;1.23;;;9.50;36.00;;;;;;5157635;28;20448;-49
2023/03/16 12:54:20;;;;;;;3.03;1.37;;;9.30;36.40;;;;;;5155264;28;20459;-51
2023/03/16 12:56:59;;;;;;;1.83;1.60;;;9.30;36.80;;;;;;5163030;28;20455;-51
2023/03/16 12:59:42;;;;;;;2.27;1.17;;;9.30;37.20;;;;;;5157413;28;20904;-52
2023/03/16 13:02:44;;;;;;;8.83;1.30;;;9.30;38.00;;;;;;5153644;28;20468;-50
2023/03/16 13:05:31;;;;;;;3.70;1.10;;;9.40;37.00;;;;;;5150062;28;20517;-48
2023/03/16 13:08:16;;;;;;;0.93;0.80;;;9.40;36.60;;;;;;5153212;28;20554;-49
2023/03/16 13:11:01;;;;;;;2.00;0.80;;;9.20;35.40;;;;;;5149081;28;20526;-49
2023/03/16 13:13:33;;;;;;;1.50;1.10;;;9.10;35.70;;;;;;5152299;28;20468;-49
2023/03/16 13:16:08;;;;;;;4.13;1.47;;;9.10;35.60;;;;;;5153783;28;20487;-48
2023/03/16 13:18:43;;;;;;;1.90;1.03;;;9.20;35.80;;;;;;5142233;28;21020;-48
2023/03/16 13:21:18;;;;;;;5.53;1.47;;;9.20;35.60;;;;;;5158749;28;20427;-49
2023/03/16 13:23:57;;;;;;;3.60;1.73;;;9.20;36.10;;;;;;5151660;28;20439;-49
2023/03/16 13:26:45;;;;;;;2.80;1.73;;;9.30;34.70;;;;;;5157864;28;20525;-48
2023/03/16 13:29:27;;;;;;;3.10;1.00;;;9.50;35.00;;;;;;5150139;28;20435;-48
2023/03/16 13:32:01;;;;;;;3.00;1.37;;;9.40;33.80;;;;;;5155497;28;20463;-49